sensor_id;sensor_type;location;lat;lon;timestamp;P1;durP1;ratioP1;P2;durP2;ratioP2
21014;SDS011;19207;-23.482;-46.500;2023-04-25T00:01:15;12.50;;;4.25;;
21014;SDS011;19207;-23.482;-46.500;2023-04-25T00:04:03;19.35;;;5.07;;
21014;SDS011;19207;-23.482;-46.500;2023-04-25T00:06:53;16.83;;;5.70;;
21014;SDS011;19207;-23.482;-46.500;2023-04-25T00:09:43;10.35;;;5.45;;
21014;SDS011;19207;-23.482;-46.500;2023-04-25T00:12:31;16.62;;;6.20;;
21014;SDS011;19207;-23.482;-46.500;2023-04-25T00:15:19;14.13;;;6.87;;
21014;SDS011;19207;-23.482;-46.500;2023-04-25T00:18:07;14.32;;;5.25;;
21014;SDS011;19207;-23.482;-46.500;2023-04-25T00:20:54;10.27;;;5.18;;
21014;SDS011;19207;-23.482;-46.500;2023-04-25T00:23:41;16.75;;;4.60;;
21014;SDS011;19207;-23.482;-46.500;2023-04-25T00:26:27;10.60;;;4.82;;
21014;SDS011;19207;-23.482;-46.500;2023-04-25T00:29:15;10.32;;;4.65;;
21014;SDS011;19207;-23.482;-46.500;2023-04-25T00:32:05;9.65;;;4.65;;
21014;SDS011;19207;-23.482;-46.500;2023-04-25T00:34:52;8.85;;;4.50;;
21014;SDS011;19207;-23.482;-46.500;2023-04-25T00:37:42;16.15;;;5.10;;
21014;SDS011;19207;-23.482;-46.500;2023-04-25T00:40:30;19.85;;;4.93;;
21014;SDS011;19207;-23.482;-46.500;2023-04-25T00:43:18;13.98;;;4.70;;
21014;SDS011;19207;-23.482;-46.500;2023-04-25T00:46:07;9.27;;;4.80;;
21014;SDS011;19207;-23.482;-46.500;2023-04-25T00:48:55;14.20;;;4.87;;
21014;SDS011;19207;-23.482;-46.500;2023-04-25T00:51:43;15.18;;;5.70;;
21014;SDS011;19207;-23.482;-46.500;2023-04-25T00:54:33;16.85;;;5.53;;
21014;SDS011;19207;-23.482;-46.500;2023-04-25T00:57:20;13.57;;;5.93;;
21014;SDS011;19207;-23.482;-46.500;2023-04-25T01:00:07;21.60;;;6.53;;
21014;SDS011;19207;-23.482;-46.500;2023-04-25T01:02:59;16.75;;;6.43;;
21014;SDS011;19207;-23.482;-46.500;2023-04-25T01:05:50;18.12;;;8.27;;
21014;SDS011;19207;-23.482;-46.500;2023-04-25T01:08:38;21.42;;;9.52;;
21014;SDS011;19207;-23.482;-46.500;2023-04-25T01:11:26;23.65;;;10.15;;
21014;SDS011;19207;-23.482;-46.500;2023-04-25T01:14:14;20.27;;;9.85;;
21014;SDS011;19207;-23.482;-46.500;2023-04-25T01:17:01;28.38;;;10.60;;
21014;SDS011;19207;-23.482;-46.500;2023-04-25T01:19:48;22.50;;;10.32;;
21014;SDS011;19207;-23.482;-46.500;2023-04-25T01:22:35;19.85;;;9.68;;
21014;SDS011;19207;-23.482;-46.500;2023-04-25T01:25:23;22.05;;;9.63;;
21014;SDS011;19207;-23.482;-46.500;2023-04-25T01:28:11;32.00;;;10.07;;
21014;SDS011;19207;-23.482;-46.500;2023-04-25T01:30:58;24.92;;;10.60;;
21014;SDS011;19207;-23.482;-46.500;2023-04-25T01:33:45;30.42;;;11.32;;
21014;SDS011;19207;-23.482;-46.500;2023-04-25T01:36:32;28.30;;;10.40;;
21014;SDS011;19207;-23.482;-46.500;2023-04-25T01:39:20;27.17;;;9.70;;
21014;SDS011;19207;-23.482;-46.500;2023-04-25T01:42:07;25.25;;;10.27;;
21014;SDS011;19207;-23.482;-46.500;2023-04-25T01:44:54;24.80;;;10.18;;
21014;SDS011;19207;-23.482;-46.500;2023-04-25T01:47:41;19.05;;;7.93;;
21014;SDS011;19207;-23.482;-46.500;2023-04-25T01:50:29;21.37;;;8.70;;
21014;SDS011;19207;-23.482;-46.500;2023-04-25T01:53:15;22.35;;;7.60;;
21014;SDS011;19207;-23.482;-46.500;2023-04-25T01:56:02;25.75;;;7.30;;
21014;SDS011;19207;-23.482;-46.500;2023-04-25T01:58:50;18.83;;;6.82;;
21014;SDS011;19207;-23.482;-46.500;2023-04-25T02:01:38;21.65;;;8.07;;
21014;SDS011;19207;-23.482;-46.500;2023-04-25T02:04:25;21.85;;;7.40;;
21014;SDS011;19207;-23.482;-46.500;2023-04-25T02:07:12;19.17;;;7.18;;
21014;SDS011;19207;-23.482;-46.500;2023-04-25T02:10:00;27.45;;;8.07;;
21014;SDS011;19207;-23.482;-46.500;2023-04-25T02:12:49;27.02;;;7.05;;
21014;SDS011;19207;-23.482;-46.500;2023-04-25T02:15:35;21.77;;;7.40;;
21014;SDS011;19207;-23.482;-46.500;2023-04-25T02:18:26;23.40;;;7.22;;
21014;SDS011;19207;-23.482;-46.500;2023-04-25T02:21:13;20.48;;;6.50;;
21014;SDS011;19207;-23.482;-46.500;2023-04-25T02:24:01;17.98;;;7.10;;
21014;SDS011;19207;-23.482;-46.500;2023-04-25T02:26:48;17.52;;;6.93;;
21014;SDS011;19207;-23.482;-46.500;2023-04-25T02:29:35;20.88;;;7.57;;
21014;SDS011;19207;-23.482;-46.500;2023-04-25T02:32:22;22.27;;;8.93;;
21014;SDS011;19207;-23.482;-46.500;2023-04-25T02:35:09;28.95;;;8.75;;
21014;SDS011;19207;-23.482;-46.500;2023-04-25T02:37:56;19.10;;;7.82;;
21014;SDS011;19207;-23.482;-46.500;2023-04-25T02:40:43;20.73;;;8.10;;
21014;SDS011;19207;-23.482;-46.500;2023-04-25T02:43:30;22.98;;;8.48;;
21014;SDS011;19207;-23.482;-46.500;2023-04-25T02:46:17;20.83;;;8.77;;
21014;SDS011;19207;-23.482;-46.500;2023-04-25T02:49:04;29.48;;;9.40;;
21014;SDS011;19207;-23.482;-46.500;2023-04-25T02:51:50;27.23;;;11.18;;
21014;SDS011;19207;-23.482;-46.500;2023-04-25T02:54:40;29.75;;;11.73;;
21014;SDS011;19207;-23.482;-46.500;2023-04-25T02:57:27;29.55;;;12.70;;
21014;SDS011;19207;-23.482;-46.500;2023-04-25T03:00:14;29.48;;;15.02;;
21014;SDS011;19207;-23.482;-46.500;2023-04-25T03:03:01;40.30;;;17.70;;
21014;SDS011;19207;-23.482;-46.500;2023-04-25T03:05:50;29.63;;;16.40;;
21014;SDS011;19207;-23.482;-46.500;2023-04-25T03:08:37;36.78;;;16.55;;
21014;SDS011;19207;-23.482;-46.500;2023-04-25T03:11:25;36.33;;;15.23;;
21014;SDS011;19207;-23.482;-46.500;2023-04-25T03:14:13;30.27;;;15.05;;
21014;SDS011;19207;-23.482;-46.500;2023-04-25T03:17:00;31.42;;;13.90;;
21014;SDS011;19207;-23.482;-46.500;2023-04-25T03:19:46;25.45;;;9.50;;
21014;SDS011;19207;-23.482;-46.500;2023-04-25T03:22:33;32.67;;;14.43;;
21014;SDS011;19207;-23.482;-46.500;2023-04-25T03:25:20;26.77;;;12.37;;
21014;SDS011;19207;-23.482;-46.500;2023-04-25T03:28:07;26.20;;;11.10;;
21014;SDS011;19207;-23.482;-46.500;2023-04-25T03:30:54;29.77;;;11.63;;
21014;SDS011;19207;-23.482;-46.500;2023-04-25T03:33:40;26.52;;;12.05;;
21014;SDS011;19207;-23.482;-46.500;2023-04-25T03:36:27;35.75;;;12.52;;
21014;SDS011;19207;-23.482;-46.500;2023-04-25T03:39:14;33.17;;;12.50;;
21014;SDS011;19207;-23.482;-46.500;2023-04-25T03:42:02;27.80;;;11.52;;
21014;SDS011;19207;-23.482;-46.500;2023-04-25T03:44:50;28.40;;;11.23;;
21014;SDS011;19207;-23.482;-46.500;2023-04-25T03:47:37;28.70;;;9.93;;
21014;SDS011;19207;-23.482;-46.500;2023-04-25T03:50:24;23.83;;;10.77;;
21014;SDS011;19207;-23.482;-46.500;2023-04-25T03:53:11;22.67;;;9.98;;
21014;SDS011;19207;-23.482;-46.500;2023-04-25T03:55:58;25.48;;;10.23;;
21014;SDS011;19207;-23.482;-46.500;2023-04-25T03:58:45;29.27;;;11.05;;
21014;SDS011;19207;-23.482;-46.500;2023-04-25T04:01:31;24.87;;;9.90;;
21014;SDS011;19207;-23.482;-46.500;2023-04-25T04:04:19;28.40;;;11.30;;
21014;SDS011;19207;-23.482;-46.500;2023-04-25T04:07:06;31.37;;;11.15;;
21014;SDS011;19207;-23.482;-46.500;2023-04-25T04:09:52;34.13;;;11.65;;
21014;SDS011;19207;-23.482;-46.500;2023-04-25T04:12:39;25.15;;;11.32;;
21014;SDS011;19207;-23.482;-46.500;2023-04-25T04:15:29;35.22;;;11.90;;
21014;SDS011;19207;-23.482;-46.500;2023-04-25T04:18:17;27.73;;;10.00;;
21014;SDS011;19207;-23.482;-46.500;2023-04-25T04:21:04;38.60;;;10.82;;
21014;SDS011;19207;-23.482;-46.500;2023-04-25T04:23:51;33.03;;;11.95;;
21014;SDS011;19207;-23.482;-46.500;2023-04-25T04:26:37;25.80;;;11.30;;
21014;SDS011;19207;-23.482;-46.500;2023-04-25T04:29:24;34.70;;;11.32;;
21014;SDS011;19207;-23.482;-46.500;2023-04-25T04:32:13;33.13;;;10.80;;
21014;SDS011;19207;-23.482;-46.500;2023-04-25T04:34:59;32.30;;;12.07;;
21014;SDS011;19207;-23.482;-46.500;2023-04-25T04:37:47;29.67;;;11.52;;
21014;SDS011;19207;-23.482;-46.500;2023-04-25T04:40:34;25.92;;;11.45;;
21014;SDS011;19207;-23.482;-46.500;2023-04-25T04:43:21;24.77;;;9.88;;
21014;SDS011;19207;-23.482;-46.500;2023-04-25T04:46:09;28.75;;;11.90;;
21014;SDS011;19207;-23.482;-46.500;2023-04-25T04:48:57;35.20;;;12.32;;
21014;SDS011;19207;-23.482;-46.500;2023-04-25T04:51:44;30.65;;;11.40;;
21014;SDS011;19207;-23.482;-46.500;2023-04-25T04:54:32;32.70;;;15.15;;
21014;SDS011;19207;-23.482;-46.500;2023-04-25T04:57:21;68.95;;;22.15;;
21014;SDS011;19207;-23.482;-46.500;2023-04-25T05:00:08;150.50;;;40.35;;
21014;SDS011;19207;-23.482;-46.500;2023-04-25T05:02:58;65.45;;;24.12;;
21014;SDS011;19207;-23.482;-46.500;2023-04-25T05:05:45;70.60;;;23.98;;
21014;SDS011;19207;-23.482;-46.500;2023-04-25T05:08:32;56.70;;;21.15;;
21014;SDS011;19207;-23.482;-46.500;2023-04-25T05:11:21;61.17;;;20.58;;
21014;SDS011;19207;-23.482;-46.500;2023-04-25T05:14:09;70.22;;;23.55;;
21014;SDS011;19207;-23.482;-46.500;2023-04-25T05:16:57;59.45;;;24.25;;
21014;SDS011;19207;-23.482;-46.500;2023-04-25T05:19:44;198.75;;;73.95;;
21014;SDS011;19207;-23.482;-46.500;2023-04-25T05:22:31;220.40;;;84.05;;
21014;SDS011;19207;-23.482;-46.500;2023-04-25T05:25:18;169.55;;;65.37;;
21014;SDS011;19207;-23.482;-46.500;2023-04-25T05:28:05;151.18;;;55.12;;
21014;SDS011;19207;-23.482;-46.500;2023-04-25T05:30:54;209.10;;;56.42;;
21014;SDS011;19207;-23.482;-46.500;2023-04-25T05:33:42;200.80;;;57.45;;
21014;SDS011;19207;-23.482;-46.500;2023-04-25T05:36:29;230.10;;;60.22;;
21014;SDS011;19207;-23.482;-46.500;2023-04-25T05:39:17;93.22;;;29.50;;
21014;SDS011;19207;-23.482;-46.500;2023-04-25T05:42:04;71.32;;;25.37;;
21014;SDS011;19207;-23.482;-46.500;2023-04-25T05:44:52;69.35;;;22.80;;
21014;SDS011;19207;-23.482;-46.500;2023-04-25T05:47:39;69.30;;;23.00;;
21014;SDS011;19207;-23.482;-46.500;2023-04-25T05:50:26;57.33;;;20.70;;
21014;SDS011;19207;-23.482;-46.500;2023-04-25T05:53:13;61.50;;;22.37;;
21014;SDS011;19207;-23.482;-46.500;2023-04-25T05:56:00;65.47;;;23.60;;
21014;SDS011;19207;-23.482;-46.500;2023-04-25T05:58:47;71.32;;;24.65;;
21014;SDS011;19207;-23.482;-46.500;2023-04-25T06:01:34;53.50;;;20.17;;
21014;SDS011;19207;-23.482;-46.500;2023-04-25T06:04:21;58.92;;;21.65;;
21014;SDS011;19207;-23.482;-46.500;2023-04-25T06:07:09;53.97;;;21.35;;
21014;SDS011;19207;-23.482;-46.500;2023-04-25T06:09:55;57.15;;;21.58;;
21014;SDS011;19207;-23.482;-46.500;2023-04-25T06:12:42;67.12;;;24.55;;
21014;SDS011;19207;-23.482;-46.500;2023-04-25T06:15:29;57.30;;;24.02;;
21014;SDS011;19207;-23.482;-46.500;2023-04-25T06:18:19;74.55;;;26.92;;
21014;SDS011;19207;-23.482;-46.500;2023-04-25T06:21:06;74.62;;;28.62;;
21014;SDS011;19207;-23.482;-46.500;2023-04-25T06:23:53;65.53;;;26.17;;
21014;SDS011;19207;-23.482;-46.500;2023-04-25T06:26:40;90.47;;;26.52;;
21014;SDS011;19207;-23.482;-46.500;2023-04-25T06:29:28;420.62;;;184.82;;
21014;SDS011;19207;-23.482;-46.500;2023-04-25T06:32:14;336.50;;;126.07;;
21014;SDS011;19207;-23.482;-46.500;2023-04-25T06:35:03;347.35;;;114.25;;
21014;SDS011;19207;-23.482;-46.500;2023-04-25T06:37:50;243.70;;;83.87;;
21014;SDS011;19207;-23.482;-46.500;2023-04-25T06:40:37;197.15;;;64.53;;
21014;SDS011;19207;-23.482;-46.500;2023-04-25T06:43:24;172.27;;;59.75;;
21014;SDS011;19207;-23.482;-46.500;2023-04-25T06:46:11;178.27;;;58.08;;
21014;SDS011;19207;-23.482;-46.500;2023-04-25T06:48:59;146.40;;;51.63;;
21014;SDS011;19207;-23.482;-46.500;2023-04-25T06:51:46;148.52;;;49.67;;
21014;SDS011;19207;-23.482;-46.500;2023-04-25T06:54:32;124.28;;;41.63;;
21014;SDS011;19207;-23.482;-46.500;2023-04-25T06:57:19;106.18;;;38.90;;
21014;SDS011;19207;-23.482;-46.500;2023-04-25T07:00:07;138.50;;;47.45;;
21014;SDS011;19207;-23.482;-46.500;2023-04-25T07:02:54;112.22;;;42.40;;
21014;SDS011;19207;-23.482;-46.500;2023-04-25T07:05:41;102.93;;;38.97;;
21014;SDS011;19207;-23.482;-46.500;2023-04-25T07:08:28;62.92;;;27.95;;
21014;SDS011;19207;-23.482;-46.500;2023-04-25T07:11:15;69.93;;;28.67;;
21014;SDS011;19207;-23.482;-46.500;2023-04-25T07:14:02;71.93;;;27.90;;
21014;SDS011;19207;-23.482;-46.500;2023-04-25T07:16:49;82.82;;;29.00;;
21014;SDS011;19207;-23.482;-46.500;2023-04-25T07:19:36;78.62;;;30.60;;
21014;SDS011;19207;-23.482;-46.500;2023-04-25T07:22:24;80.82;;;29.55;;
21014;SDS011;19207;-23.482;-46.500;2023-04-25T07:25:11;68.82;;;28.30;;
21014;SDS011;19207;-23.482;-46.500;2023-04-25T07:27:58;72.70;;;27.87;;
21014;SDS011;19207;-23.482;-46.500;2023-04-25T07:30:45;91.93;;;30.37;;
21014;SDS011;19207;-23.482;-46.500;2023-04-25T07:33:33;78.95;;;25.27;;
21014;SDS011;19207;-23.482;-46.500;2023-04-25T07:36:20;58.13;;;24.08;;
21014;SDS011;19207;-23.482;-46.500;2023-04-25T07:39:06;76.03;;;24.23;;
21014;SDS011;19207;-23.482;-46.500;2023-04-25T07:41:54;63.70;;;23.27;;
21014;SDS011;19207;-23.482;-46.500;2023-04-25T07:44:41;79.18;;;26.55;;
21014;SDS011;19207;-23.482;-46.500;2023-04-25T07:47:28;73.78;;;28.70;;
21014;SDS011;19207;-23.482;-46.500;2023-04-25T07:50:15;98.30;;;32.95;;
21014;SDS011;19207;-23.482;-46.500;2023-04-25T07:53:01;88.75;;;32.85;;
21014;SDS011;19207;-23.482;-46.500;2023-04-25T07:55:49;92.28;;;33.78;;
21014;SDS011;19207;-23.482;-46.500;2023-04-25T07:58:36;79.65;;;30.35;;
21014;SDS011;19207;-23.482;-46.500;2023-04-25T08:01:23;94.93;;;29.25;;
21014;SDS011;19207;-23.482;-46.500;2023-04-25T08:04:10;81.85;;;26.65;;
21014;SDS011;19207;-23.482;-46.500;2023-04-25T08:06:58;69.97;;;25.60;;
21014;SDS011;19207;-23.482;-46.500;2023-04-25T08:09:45;75.30;;;25.50;;
21014;SDS011;19207;-23.482;-46.500;2023-04-25T08:12:31;70.32;;;25.45;;
21014;SDS011;19207;-23.482;-46.500;2023-04-25T08:15:18;64.47;;;26.33;;
21014;SDS011;19207;-23.482;-46.500;2023-04-25T08:18:05;80.40;;;28.77;;
21014;SDS011;19207;-23.482;-46.500;2023-04-25T08:20:53;69.12;;;26.85;;
21014;SDS011;19207;-23.482;-46.500;2023-04-25T08:23:40;73.85;;;23.45;;
21014;SDS011;19207;-23.482;-46.500;2023-04-25T08:26:28;63.22;;;24.60;;
21014;SDS011;19207;-23.482;-46.500;2023-04-25T08:29:15;64.97;;;22.90;;
21014;SDS011;19207;-23.482;-46.500;2023-04-25T08:32:01;60.95;;;22.17;;
21014;SDS011;19207;-23.482;-46.500;2023-04-25T08:34:48;54.17;;;19.70;;
21014;SDS011;19207;-23.482;-46.500;2023-04-25T08:37:39;70.20;;;25.83;;
21014;SDS011;19207;-23.482;-46.500;2023-04-25T08:40:27;89.80;;;28.65;;
21014;SDS011;19207;-23.482;-46.500;2023-04-25T08:43:17;88.68;;;32.00;;
21014;SDS011;19207;-23.482;-46.500;2023-04-25T08:46:04;121.32;;;42.85;;
21014;SDS011;19207;-23.482;-46.500;2023-04-25T08:48:52;112.55;;;40.97;;
21014;SDS011;19207;-23.482;-46.500;2023-04-25T08:51:44;83.95;;;30.05;;
21014;SDS011;19207;-23.482;-46.500;2023-04-25T08:54:36;71.95;;;26.48;;
21014;SDS011;19207;-23.482;-46.500;2023-04-25T08:57:23;76.47;;;27.73;;
21014;SDS011;19207;-23.482;-46.500;2023-04-25T09:00:11;69.37;;;24.83;;
21014;SDS011;19207;-23.482;-46.500;2023-04-25T09:02:59;98.65;;;36.75;;
21014;SDS011;19207;-23.482;-46.500;2023-04-25T09:05:46;107.18;;;37.63;;
21014;SDS011;19207;-23.482;-46.500;2023-04-25T09:08:33;151.35;;;42.97;;
21014;SDS011;19207;-23.482;-46.500;2023-04-25T09:11:20;124.60;;;42.55;;
21014;SDS011;19207;-23.482;-46.500;2023-04-25T09:14:17;216.38;;;79.90;;
21014;SDS011;19207;-23.482;-46.500;2023-04-25T09:17:06;268.63;;;94.18;;
21014;SDS011;19207;-23.482;-46.500;2023-04-25T09:19:53;213.70;;;79.20;;
21014;SDS011;19207;-23.482;-46.500;2023-04-25T09:22:41;232.07;;;92.30;;
21014;SDS011;19207;-23.482;-46.500;2023-04-25T09:25:28;200.00;;;74.95;;
21014;SDS011;19207;-23.482;-46.500;2023-04-25T09:28:25;188.35;;;73.53;;
21014;SDS011;19207;-23.482;-46.500;2023-04-25T09:31:20;177.05;;;67.93;;
21014;SDS011;19207;-23.482;-46.500;2023-04-25T09:34:09;147.60;;;63.30;;
21014;SDS011;19207;-23.482;-46.500;2023-04-25T09:37:01;89.10;;;33.72;;
21014;SDS011;19207;-23.482;-46.500;2023-04-25T09:39:48;79.65;;;26.10;;
21014;SDS011;19207;-23.482;-46.500;2023-04-25T09:42:35;92.93;;;32.28;;
21014;SDS011;19207;-23.482;-46.500;2023-04-25T09:45:22;137.57;;;50.80;;
21014;SDS011;19207;-23.482;-46.500;2023-04-25T09:48:10;94.47;;;34.42;;
21014;SDS011;19207;-23.482;-46.500;2023-04-25T09:53:50;93.30;;;33.17;;
21014;SDS011;19207;-23.482;-46.500;2023-04-25T09:56:38;97.22;;;35.80;;
21014;SDS011;19207;-23.482;-46.500;2023-04-25T09:59:25;112.35;;;38.10;;
21014;SDS011;19207;-23.482;-46.500;2023-04-25T10:02:14;110.37;;;38.55;;
21014;SDS011;19207;-23.482;-46.500;2023-04-25T10:05:01;119.75;;;41.90;;
21014;SDS011;19207;-23.482;-46.500;2023-04-25T10:07:49;72.15;;;25.77;;
21014;SDS011;19207;-23.482;-46.500;2023-04-25T10:10:36;63.38;;;22.67;;
21014;SDS011;19207;-23.482;-46.500;2023-04-25T10:13:23;69.18;;;21.90;;
21014;SDS011;19207;-23.482;-46.500;2023-04-25T10:16:10;60.97;;;22.52;;
21014;SDS011;19207;-23.482;-46.500;2023-04-25T10:18:57;64.30;;;22.50;;
21014;SDS011;19207;-23.482;-46.500;2023-04-25T10:21:50;65.18;;;22.58;;
21014;SDS011;19207;-23.482;-46.500;2023-04-25T10:24:38;70.00;;;26.23;;
21014;SDS011;19207;-23.482;-46.500;2023-04-25T10:27:27;71.45;;;26.42;;
21014;SDS011;19207;-23.482;-46.500;2023-04-25T10:30:13;81.70;;;33.53;;
21014;SDS011;19207;-23.482;-46.500;2023-04-25T10:33:00;56.67;;;25.27;;
21014;SDS011;19207;-23.482;-46.500;2023-04-25T10:35:47;67.28;;;25.20;;
21014;SDS011;19207;-23.482;-46.500;2023-04-25T10:38:33;66.60;;;24.30;;
21014;SDS011;19207;-23.482;-46.500;2023-04-25T10:41:20;59.50;;;23.23;;
21014;SDS011;19207;-23.482;-46.500;2023-04-25T10:44:08;56.05;;;23.42;;
21014;SDS011;19207;-23.482;-46.500;2023-04-25T10:46:58;62.62;;;25.80;;
21014;SDS011;19207;-23.482;-46.500;2023-04-25T10:49:45;67.15;;;26.73;;
21014;SDS011;19207;-23.482;-46.500;2023-04-25T10:52:38;61.17;;;25.52;;
21014;SDS011;19207;-23.482;-46.500;2023-04-25T10:55:25;61.53;;;27.42;;
21014;SDS011;19207;-23.482;-46.500;2023-04-25T10:58:12;59.45;;;26.95;;
21014;SDS011;19207;-23.482;-46.500;2023-04-25T11:00:58;53.40;;;22.87;;
21014;SDS011;19207;-23.482;-46.500;2023-04-25T11:03:46;51.45;;;21.80;;
21014;SDS011;19207;-23.482;-46.500;2023-04-25T11:06:46;52.03;;;21.65;;
21014;SDS011;19207;-23.482;-46.500;2023-04-25T11:09:34;48.13;;;19.90;;
21014;SDS011;19207;-23.482;-46.500;2023-04-25T11:12:20;35.60;;;17.80;;
21014;SDS011;19207;-23.482;-46.500;2023-04-25T11:15:07;35.67;;;18.12;;
21014;SDS011;19207;-23.482;-46.500;2023-04-25T11:17:54;41.80;;;18.12;;
21014;SDS011;19207;-23.482;-46.500;2023-04-25T11:20:42;43.78;;;18.65;;
21014;SDS011;19207;-23.482;-46.500;2023-04-25T11:23:30;45.80;;;21.85;;
21014;SDS011;19207;-23.482;-46.500;2023-04-25T11:26:19;39.08;;;18.85;;
21014;SDS011;19207;-23.482;-46.500;2023-04-25T11:29:05;54.03;;;21.25;;
21014;SDS011;19207;-23.482;-46.500;2023-04-25T11:31:55;39.92;;;19.45;;
21014;SDS011;19207;-23.482;-46.500;2023-04-25T11:34:44;40.63;;;19.02;;
21014;SDS011;19207;-23.482;-46.500;2023-04-25T11:37:31;39.53;;;18.05;;
21014;SDS011;19207;-23.482;-46.500;2023-04-25T11:40:19;36.15;;;17.73;;
21014;SDS011;19207;-23.482;-46.500;2023-04-25T11:43:05;47.50;;;16.92;;
21014;SDS011;19207;-23.482;-46.500;2023-04-25T11:45:52;51.13;;;18.37;;
21014;SDS011;19207;-23.482;-46.500;2023-04-25T11:48:40;42.62;;;18.95;;
21014;SDS011;19207;-23.482;-46.500;2023-04-25T11:51:26;38.72;;;17.15;;
21014;SDS011;19207;-23.482;-46.500;2023-04-25T11:54:12;42.20;;;16.42;;
21014;SDS011;19207;-23.482;-46.500;2023-04-25T11:57:00;28.65;;;13.55;;
21014;SDS011;19207;-23.482;-46.500;2023-04-25T11:59:46;24.48;;;12.65;;
21014;SDS011;19207;-23.482;-46.500;2023-04-25T12:02:36;31.70;;;13.40;;
21014;SDS011;19207;-23.482;-46.500;2023-04-25T12:05:25;25.20;;;13.98;;
21014;SDS011;19207;-23.482;-46.500;2023-04-25T12:08:14;34.42;;;16.05;;
21014;SDS011;19207;-23.482;-46.500;2023-04-25T12:11:03;40.45;;;18.77;;
21014;SDS011;19207;-23.482;-46.500;2023-04-25T12:13:52;32.95;;;14.55;;
21014;SDS011;19207;-23.482;-46.500;2023-04-25T12:16:42;27.45;;;13.52;;
21014;SDS011;19207;-23.482;-46.500;2023-04-25T12:19:32;31.27;;;13.55;;
21014;SDS011;19207;-23.482;-46.500;2023-04-25T12:22:22;37.55;;;13.30;;
21014;SDS011;19207;-23.482;-46.500;2023-04-25T12:25:33;41.37;;;20.70;;
21014;SDS011;19207;-23.482;-46.500;2023-04-25T12:28:23;32.97;;;13.52;;
21014;SDS011;19207;-23.482;-46.500;2023-04-25T12:31:16;30.80;;;14.45;;
21014;SDS011;19207;-23.482;-46.500;2023-04-25T12:34:06;22.17;;;12.93;;
21014;SDS011;19207;-23.482;-46.500;2023-04-25T12:36:57;42.65;;;14.32;;
21014;SDS011;19207;-23.482;-46.500;2023-04-25T12:39:45;40.38;;;17.35;;
21014;SDS011;19207;-23.482;-46.500;2023-04-25T12:42:33;34.75;;;18.42;;
21014;SDS011;19207;-23.482;-46.500;2023-04-25T12:45:22;32.83;;;15.52;;
21014;SDS011;19207;-23.482;-46.500;2023-04-25T12:48:10;26.20;;;11.68;;
21014;SDS011;19207;-23.482;-46.500;2023-04-25T12:50:58;25.70;;;11.95;;
21014;SDS011;19207;-23.482;-46.500;2023-04-25T12:53:46;28.08;;;13.75;;
21014;SDS011;19207;-23.482;-46.500;2023-04-25T12:56:35;29.42;;;13.93;;
21014;SDS011;19207;-23.482;-46.500;2023-04-25T12:59:23;26.95;;;12.80;;
21014;SDS011;19207;-23.482;-46.500;2023-04-25T13:02:12;22.80;;;12.43;;
21014;SDS011;19207;-23.482;-46.500;2023-04-25T13:05:00;26.92;;;12.80;;
21014;SDS011;19207;-23.482;-46.500;2023-04-25T13:07:48;38.72;;;16.85;;
21014;SDS011;19207;-23.482;-46.500;2023-04-25T13:10:39;29.33;;;13.82;;
21014;SDS011;19207;-23.482;-46.500;2023-04-25T13:13:29;26.67;;;12.90;;
21014;SDS011;19207;-23.482;-46.500;2023-04-25T13:16:18;31.70;;;15.68;;
21014;SDS011;19207;-23.482;-46.500;2023-04-25T13:19:07;22.20;;;12.52;;
21014;SDS011;19207;-23.482;-46.500;2023-04-25T13:21:57;31.87;;;15.38;;
21014;SDS011;19207;-23.482;-46.500;2023-04-25T13:24:46;27.17;;;14.00;;
21014;SDS011;19207;-23.482;-46.500;2023-04-25T13:27:35;30.05;;;13.25;;
21014;SDS011;19207;-23.482;-46.500;2023-04-25T13:30:26;23.17;;;12.85;;
21014;SDS011;19207;-23.482;-46.500;2023-04-25T13:33:15;24.45;;;13.05;;
21014;SDS011;19207;-23.482;-46.500;2023-04-25T13:36:05;22.95;;;11.70;;
21014;SDS011;19207;-23.482;-46.500;2023-04-25T13:38:54;27.40;;;13.48;;
21014;SDS011;19207;-23.482;-46.500;2023-04-25T13:41:43;21.02;;;12.23;;
21014;SDS011;19207;-23.482;-46.500;2023-04-25T13:44:32;24.75;;;12.98;;
21014;SDS011;19207;-23.482;-46.500;2023-04-25T13:47:20;30.77;;;16.33;;
21014;SDS011;19207;-23.482;-46.500;2023-04-25T13:50:09;29.20;;;12.65;;
21014;SDS011;19207;-23.482;-46.500;2023-04-25T13:52:59;39.90;;;14.90;;
21014;SDS011;19207;-23.482;-46.500;2023-04-25T13:55:50;46.17;;;24.25;;
21014;SDS011;19207;-23.482;-46.500;2023-04-25T13:58:38;30.58;;;14.00;;
21014;SDS011;19207;-23.482;-46.500;2023-04-25T14:01:28;31.55;;;14.65;;
21014;SDS011;19207;-23.482;-46.500;2023-04-25T14:04:18;28.85;;;13.75;;
21014;SDS011;19207;-23.482;-46.500;2023-04-25T14:07:06;29.25;;;19.15;;
21014;SDS011;19207;-23.482;-46.500;2023-04-25T14:09:56;27.42;;;14.70;;
21014;SDS011;19207;-23.482;-46.500;2023-04-25T14:12:45;30.08;;;15.57;;
21014;SDS011;19207;-23.482;-46.500;2023-04-25T14:15:36;38.55;;;15.02;;
21014;SDS011;19207;-23.482;-46.500;2023-04-25T14:18:25;30.85;;;14.00;;
21014;SDS011;19207;-23.482;-46.500;2023-04-25T14:21:14;26.87;;;13.82;;
21014;SDS011;19207;-23.482;-46.500;2023-04-25T14:24:04;22.50;;;13.32;;
21014;SDS011;19207;-23.482;-46.500;2023-04-25T14:26:55;13.40;;;7.40;;
21014;SDS011;19207;-23.482;-46.500;2023-04-25T14:29:43;12.27;;;7.05;;
21014;SDS011;19207;-23.482;-46.500;2023-04-25T14:32:33;11.57;;;7.80;;
21014;SDS011;19207;-23.482;-46.500;2023-04-25T14:35:21;24.65;;;12.50;;
21014;SDS011;19207;-23.482;-46.500;2023-04-25T14:38:11;23.27;;;11.50;;
21014;SDS011;19207;-23.482;-46.500;2023-04-25T14:40:59;25.40;;;12.70;;
21014;SDS011;19207;-23.482;-46.500;2023-04-25T14:43:47;27.30;;;12.00;;
21014;SDS011;19207;-23.482;-46.500;2023-04-25T14:46:36;26.23;;;12.45;;
21014;SDS011;19207;-23.482;-46.500;2023-04-25T14:49:25;38.35;;;28.12;;
21014;SDS011;19207;-23.482;-46.500;2023-04-25T14:52:14;32.88;;;12.45;;
21014;SDS011;19207;-23.482;-46.500;2023-04-25T14:55:02;34.85;;;12.60;;
21014;SDS011;19207;-23.482;-46.500;2023-04-25T14:57:53;11.18;;;7.10;;
21014;SDS011;19207;-23.482;-46.500;2023-04-25T15:00:41;9.32;;;6.37;;
21014;SDS011;19207;-23.482;-46.500;2023-04-25T15:03:30;12.70;;;6.30;;
21014;SDS011;19207;-23.482;-46.500;2023-04-25T15:06:19;11.55;;;6.32;;
21014;SDS011;19207;-23.482;-46.500;2023-04-25T15:09:07;11.85;;;7.40;;
21014;SDS011;19207;-23.482;-46.500;2023-04-25T15:11:56;11.60;;;6.78;;
21014;SDS011;19207;-23.482;-46.500;2023-04-25T15:14:45;12.48;;;6.03;;
21014;SDS011;19207;-23.482;-46.500;2023-04-25T15:17:35;19.92;;;10.73;;
21014;SDS011;19207;-23.482;-46.500;2023-04-25T15:20:24;8.90;;;5.95;;
21014;SDS011;19207;-23.482;-46.500;2023-04-25T15:23:13;13.90;;;6.20;;
21014;SDS011;19207;-23.482;-46.500;2023-04-25T15:26:01;7.85;;;5.97;;
21014;SDS011;19207;-23.482;-46.500;2023-04-25T15:28:49;12.25;;;5.75;;
21014;SDS011;19207;-23.482;-46.500;2023-04-25T15:31:37;9.63;;;6.37;;
21014;SDS011;19207;-23.482;-46.500;2023-04-25T15:34:25;11.50;;;6.60;;
21014;SDS011;19207;-23.482;-46.500;2023-04-25T15:37:12;12.75;;;6.22;;
21014;SDS011;19207;-23.482;-46.500;2023-04-25T15:40:01;9.32;;;6.22;;
21014;SDS011;19207;-23.482;-46.500;2023-04-25T15:42:59;12.10;;;7.90;;
21014;SDS011;19207;-23.482;-46.500;2023-04-25T15:45:46;10.65;;;6.03;;